sensor_id;sensor_type;location;lat;lon;timestamp;pressure;altitude;pressure_sealevel;temperature;humidity
70544;BME280;58097;48.364;-1.224;2022-09-09T00:00:37;99091.81;;;15.83;78.25
70544;BME280;58097;48.364;-1.224;2022-09-09T00:06:07;99080.03;;;15.74;78.54
70544;BME280;58097;48.364;-1.224;2022-09-09T00:11:18;99097.41;;;15.69;78.89
70544;BME280;58097;48.364;-1.224;2022-09-09T00:13:52;99088.59;;;15.72;78.64
70544;BME280;58097;48.364;-1.224;2022-09-09T00:16:23;99087.75;;;15.72;78.74
70544;BME280;58097;48.364;-1.224;2022-09-09T00:21:18;99091.81;;;15.69;79.22
70544;BME280;58097;48.364;-1.224;2022-09-09T00:23:51;99094.81;;;15.68;78.89
70544;BME280;58097;48.364;-1.224;2022-09-09T00:26:44;99083.47;;;15.69;78.74
70544;BME280;58097;48.364;-1.224;2022-09-09T00:29:30;99088.59;;;15.72;78.71
70544;BME280;58097;48.364;-1.224;2022-09-09T00:32:09;99084.75;;;15.73;78.89
70544;BME280;58097;48.364;-1.224;2022-09-09T00:34:39;99090.53;;;15.72;78.52
70544;BME280;58097;48.364;-1.224;2022-09-09T00:37:08;99089.91;;;15.70;79.24
70544;BME280;58097;48.364;-1.224;2022-09-09T00:39:40;99080.03;;;15.67;78.94
70544;BME280;58097;48.364;-1.224;2022-09-09T00:44:53;99079.16;;;15.60;79.27
70544;BME280;58097;48.364;-1.224;2022-09-09T00:52:35;99080.22;;;15.59;79.32
70544;BME280;58097;48.364;-1.224;2022-09-09T00:57:37;99071.47;;;15.62;79.26
70544;BME280;58097;48.364;-1.224;2022-09-09T01:00:24;99068.25;;;15.65;79.32
70544;BME280;58097;48.364;-1.224;2022-09-09T01:08:46;99078.75;;;15.70;79.62
70544;BME280;58097;48.364;-1.224;2022-09-09T01:11:25;99086.91;;;15.71;79.46
70544;BME280;58097;48.364;-1.224;2022-09-09T01:14:16;99082.19;;;15.72;79.32
70544;BME280;58097;48.364;-1.224;2022-09-09T01:16:45;99083.03;;;15.72;79.58
70544;BME280;58097;48.364;-1.224;2022-09-09T01:19:18;99078.53;;;15.71;79.64
70544;BME280;58097;48.364;-1.224;2022-09-09T01:21:56;99078.53;;;15.71;79.44
70544;BME280;58097;48.364;-1.224;2022-09-09T01:24:31;99081.13;;;15.66;79.28
70544;BME280;58097;48.364;-1.224;2022-09-09T01:27:05;99079.41;;;15.65;79.53
70544;BME280;58097;48.364;-1.224;2022-09-09T01:29:32;99080.47;;;15.64;79.36
70544;BME280;58097;48.364;-1.224;2022-09-09T01:32:35;99083.25;;;15.64;79.47
70544;BME280;58097;48.364;-1.224;2022-09-09T01:34:47;99081.34;;;15.65;79.75
70544;BME280;58097;48.364;-1.224;2022-09-09T01:37:13;99080.47;;;15.64;80.16
70544;BME280;58097;48.364;-1.224;2022-09-09T01:39:41;99078.97;;;15.62;79.56
70544;BME280;58097;48.364;-1.224;2022-09-09T01:42:09;99086.91;;;15.65;79.69
70544;BME280;58097;48.364;-1.224;2022-09-09T01:44:36;99086.69;;;15.66;79.80
70544;BME280;58097;48.364;-1.224;2022-09-09T01:47:03;99083.03;;;15.66;80.25
70544;BME280;58097;48.364;-1.224;2022-09-09T01:49:29;99090.97;;;15.69;79.55
70544;BME280;58097;48.364;-1.224;2022-09-09T01:51:55;99079.63;;;15.64;80.46
70544;BME280;58097;48.364;-1.224;2022-09-09T01:54:24;99079.84;;;15.62;80.33
70544;BME280;58097;48.364;-1.224;2022-09-09T01:59:52;99086.91;;;15.65;80.32
70544;BME280;58097;48.364;-1.224;2022-09-09T02:07:39;99090.13;;;15.62;80.00
70544;BME280;58097;48.364;-1.224;2022-09-09T02:10:21;99085.81;;;15.59;80.04
70544;BME280;58097;48.364;-1.224;2022-09-09T02:12:54;99096.25;;;15.57;80.14
70544;BME280;58097;48.364;-1.224;2022-09-09T02:15:36;99095.22;;;15.58;79.77
70544;BME280;58097;48.364;-1.224;2022-09-09T02:18:07;99098.41;;;15.55;79.83
70544;BME280;58097;48.364;-1.224;2022-09-09T02:20:37;99093.69;;;15.49;79.48
70544;BME280;58097;48.364;-1.224;2022-09-09T02:23:04;99103.97;;;15.48;79.34
70544;BME280;58097;48.364;-1.224;2022-09-09T02:25:30;99103.97;;;15.48;79.64
70544;BME280;58097;48.364;-1.224;2022-09-09T02:27:56;99108.47;;;15.43;79.37
70544;BME280;58097;48.364;-1.224;2022-09-09T02:30:24;99104.41;;;15.45;79.45
70544;BME280;58097;48.364;-1.224;2022-09-09T02:32:52;99099.91;;;15.44;79.33
70544;BME280;58097;48.364;-1.224;2022-09-09T02:35:24;99108.25;;;15.38;79.46
70544;BME280;58097;48.364;-1.224;2022-09-09T02:37:51;99096.22;;;15.31;79.50
70544;BME280;58097;48.364;-1.224;2022-09-09T02:40:18;99107.56;;;15.29;80.04
70544;BME280;58097;48.364;-1.224;2022-09-09T02:42:46;99103.94;;;15.29;79.85
70544;BME280;58097;48.364;-1.224;2022-09-09T02:45:14;99100.09;;;15.30;79.73
70544;BME280;58097;48.364;-1.224;2022-09-09T02:50:37;99093.28;;;15.39;80.02
70544;BME280;58097;48.364;-1.224;2022-09-09T02:53:17;99092.63;;;15.43;79.96
70544;BME280;58097;48.364;-1.224;2022-09-09T02:56:04;99087.50;;;15.40;80.03
70544;BME280;58097;48.364;-1.224;2022-09-09T02:58:32;99093.69;;;15.42;79.75
70544;BME280;58097;48.364;-1.224;2022-09-09T03:00:58;99105.03;;;15.41;79.49
70544;BME280;58097;48.364;-1.224;2022-09-09T03:03:26;99101.84;;;15.37;79.57
70544;BME280;58097;48.364;-1.224;2022-09-09T03:05:52;99106.97;;;15.34;80.06
70544;BME280;58097;48.364;-1.224;2022-09-09T03:08:17;99098.81;;;15.32;80.04
70544;BME280;58097;48.364;-1.224;2022-09-09T03:10:43;99112.94;;;15.31;80.00
70544;BME280;58097;48.364;-1.224;2022-09-09T03:13:08;99104.78;;;15.29;80.24
70544;BME280;58097;48.364;-1.224;2022-09-09T03:15:34;99114.00;;;15.30;79.59
70544;BME280;58097;48.364;-1.224;2022-09-09T03:18:00;99111.22;;;15.30;80.06
70544;BME280;58097;48.364;-1.224;2022-09-09T03:20:27;99115.31;;;15.34;79.53
70544;BME280;58097;48.364;-1.224;2022-09-09T03:22:54;99114.03;;;15.36;79.36
70544;BME280;58097;48.364;-1.224;2022-09-09T03:25:21;99116.19;;;15.34;79.19
70544;BME280;58097;48.364;-1.224;2022-09-09T03:27:48;99118.97;;;15.34;79.67
70544;BME280;58097;48.364;-1.224;2022-09-09T03:30:15;99111.69;;;15.33;80.05
70544;BME280;58097;48.364;-1.224;2022-09-09T03:32:40;99111.84;;;15.32;80.15
70544;BME280;58097;48.364;-1.224;2022-09-09T03:35:05;99114.00;;;15.30;80.03
70544;BME280;58097;48.364;-1.224;2022-09-09T03:37:31;99108.91;;;15.33;79.90
70544;BME280;58097;48.364;-1.224;2022-09-09T03:39:56;99117.44;;;15.32;79.79
70544;BME280;58097;48.364;-1.224;2022-09-09T03:42:22;99118.75;;;15.36;79.70
70544;BME280;58097;48.364;-1.224;2022-09-09T03:44:47;99117.69;;;15.37;79.55
70544;BME280;58097;48.364;-1.224;2022-09-09T03:47:19;99118.97;;;15.34;79.80
70544;BME280;58097;48.364;-1.224;2022-09-09T03:49:46;99115.53;;;15.39;79.57
70544;BME280;58097;48.364;-1.224;2022-09-09T03:52:13;99109.28;;;15.30;80.25
70544;BME280;58097;48.364;-1.224;2022-09-09T03:54:39;99119.34;;;15.31;80.23
70544;BME280;58097;48.364;-1.224;2022-09-09T03:57:04;99111.69;;;15.33;80.36
70544;BME280;58097;48.364;-1.224;2022-09-09T03:59:30;99118.72;;;15.29;80.64
70544;BME280;58097;48.364;-1.224;2022-09-09T04:01:55;99118.50;;;15.31;80.08
70544;BME280;58097;48.364;-1.224;2022-09-09T04:04:22;99112.31;;;15.35;80.29
70544;BME280;58097;48.364;-1.224;2022-09-09T04:06:47;99116.59;;;15.38;80.51
70544;BME280;58097;48.364;-1.224;2022-09-09T04:09:14;99116.56;;;15.31;80.84
70544;BME280;58097;48.364;-1.224;2022-09-09T04:11:39;99111.69;;;15.33;80.24
70544;BME280;58097;48.364;-1.224;2022-09-09T04:14:05;99118.09;;;15.34;80.62
70544;BME280;58097;48.364;-1.224;2022-09-09T04:16:34;99117.69;;;15.37;80.04
70544;BME280;58097;48.364;-1.224;2022-09-09T04:19:03;99110.41;;;15.36;80.71
70544;BME280;58097;48.364;-1.224;2022-09-09T04:21:30;99123.88;;;15.39;80.71
70544;BME280;58097;48.364;-1.224;2022-09-09T04:23:55;99116.41;;;15.39;80.75
70544;BME280;58097;48.364;-1.224;2022-09-09T04:26:21;99124.97;;;15.38;80.84
70544;BME280;58097;48.364;-1.224;2022-09-09T04:28:46;99125.19;;;15.36;81.09
70544;BME280;58097;48.364;-1.224;2022-09-09T04:31:20;99117.88;;;15.35;81.15
70544;BME280;58097;48.364;-1.224;2022-09-09T04:33:48;99121.75;;;15.41;80.63
70544;BME280;58097;48.364;-1.224;2022-09-09T04:36:14;99120.69;;;15.42;80.77
70544;BME280;58097;48.364;-1.224;2022-09-09T04:38:39;99129.88;;;15.42;80.53
70544;BME280;58097;48.364;-1.224;2022-09-09T04:41:05;99127.97;;;15.43;80.94
70544;BME280;58097;48.364;-1.224;2022-09-09T04:43:31;99126.91;;;15.44;80.40
70544;BME280;58097;48.364;-1.224;2022-09-09T04:45:57;99124.31;;;15.42;80.59
70544;BME280;58097;48.364;-1.224;2022-09-09T04:48:24;99121.31;;;15.44;80.58
70544;BME280;58097;48.364;-1.224;2022-09-09T04:51:01;99123.69;;;15.40;80.65
70544;BME280;58097;48.364;-1.224;2022-09-09T04:53:27;99121.75;;;15.41;80.79
70544;BME280;58097;48.364;-1.224;2022-09-09T04:56:04;99127.53;;;15.39;80.92
70544;BME280;58097;48.364;-1.224;2022-09-09T04:58:30;99129.03;;;15.42;80.75
70544;BME280;58097;48.364;-1.224;2022-09-09T05:01:23;99125.41;;;15.41;80.85
70544;BME280;58097;48.364;-1.224;2022-09-09T05:03:48;99132.69;;;15.42;80.95
70544;BME280;58097;48.364;-1.224;2022-09-09T05:06:19;99125.59;;;15.40;80.90
70544;BME280;58097;48.364;-1.224;2022-09-09T05:08:45;99127.31;;;15.41;80.94
70544;BME280;58097;48.364;-1.224;2022-09-09T05:11:24;99130.31;;;15.39;80.84
70544;BME280;58097;48.364;-1.224;2022-09-09T05:13:51;99131.59;;;15.37;81.08
70544;BME280;58097;48.364;-1.224;2022-09-09T05:16:17;99139.94;;;15.37;81.06
70544;BME280;58097;48.364;-1.224;2022-09-09T05:18:43;99140.81;;;15.37;81.00
70544;BME280;58097;48.364;-1.224;2022-09-09T05:21:10;99143.59;;;15.37;81.09
70544;BME280;58097;48.364;-1.224;2022-09-09T05:23:36;99141.44;;;15.33;81.24
70544;BME280;58097;48.364;-1.224;2022-09-09T05:26:02;99146.81;;;15.34;81.22
70544;BME280;58097;48.364;-1.224;2022-09-09T05:28:28;99145.94;;;15.34;81.46
70544;BME280;58097;48.364;-1.224;2022-09-09T05:30:59;99150.44;;;15.35;81.56
70544;BME280;58097;48.364;-1.224;2022-09-09T05:33:30;99157.50;;;15.37;81.29
70544;BME280;58097;48.364;-1.224;2022-09-09T05:36:01;99148.53;;;15.42;81.25
70544;BME280;58097;48.364;-1.224;2022-09-09T05:38:28;99148.53;;;15.42;81.06
70544;BME280;58097;48.364;-1.224;2022-09-09T05:40:54;99149.81;;;15.46;81.21
70544;BME280;58097;48.364;-1.224;2022-09-09T05:43:21;99152.38;;;15.41;81.31
70544;BME280;58097;48.364;-1.224;2022-09-09T05:45:47;99157.09;;;15.40;81.38
70544;BME280;58097;48.364;-1.224;2022-09-09T05:48:16;99155.16;;;15.41;81.43
70544;BME280;58097;48.364;-1.224;2022-09-09T05:50:42;99152.16;;;15.42;81.31
70544;BME280;58097;48.364;-1.224;2022-09-09T05:53:09;99153.22;;;15.41;81.10
70544;BME280;58097;48.364;-1.224;2022-09-09T05:55:35;99154.53;;;15.39;81.16
70544;BME280;58097;48.364;-1.224;2022-09-09T05:58:00;99163.94;;;15.38;81.31
70544;BME280;58097;48.364;-1.224;2022-09-09T06:00:26;99172.28;;;15.38;81.18
70544;BME280;58097;48.364;-1.224;2022-09-09T06:02:52;99163.72;;;15.39;81.48
70544;BME280;58097;48.364;-1.224;2022-09-09T06:05:19;99159.66;;;15.42;81.25
70544;BME280;58097;48.364;-1.224;2022-09-09T06:07:44;99162.00;;;15.38;81.65
70544;BME280;58097;48.364;-1.224;2022-09-09T06:10:11;99156.44;;;15.38;81.88
70544;BME280;58097;48.364;-1.224;2022-09-09T06:12:39;99163.94;;;15.38;81.83
70544;BME280;58097;48.364;-1.224;2022-09-09T06:15:05;99160.72;;;15.41;81.59
70544;BME280;58097;48.364;-1.224;2022-09-09T06:17:30;99168.22;;;15.40;81.63
70544;BME280;58097;48.364;-1.224;2022-09-09T06:19:56;99163.09;;;15.44;81.70
70544;BME280;58097;48.364;-1.224;2022-09-09T06:22:21;99169.94;;;15.48;81.47
70544;BME280;58097;48.364;-1.224;2022-09-09T06:24:46;99175.09;;;15.51;81.59
70544;BME280;58097;48.364;-1.224;2022-09-09T06:27:12;99183.22;;;15.53;81.57
70544;BME280;58097;48.364;-1.224;2022-09-09T06:29:38;99189.44;;;15.55;81.37
70544;BME280;58097;48.364;-1.224;2022-09-09T06:32:04;99184.34;;;15.58;81.14
70544;BME280;58097;48.364;-1.224;2022-09-09T06:34:29;99184.34;;;15.58;81.62
70544;BME280;58097;48.364;-1.224;2022-09-09T06:36:55;99200.44;;;15.63;81.06
70544;BME280;58097;48.364;-1.224;2022-09-09T06:39:22;99204.09;;;15.63;81.36
70544;BME280;58097;48.364;-1.224;2022-09-09T06:41:48;99209.19;;;15.60;81.01
70544;BME280;58097;48.364;-1.224;2022-09-09T06:44:14;99204.09;;;15.63;81.15
70544;BME280;58097;48.364;-1.224;2022-09-09T06:46:40;99214.38;;;15.69;80.81
70544;BME280;58097;48.364;-1.224;2022-09-09T06:49:07;99204.09;;;15.70;80.74
70544;BME280;58097;48.364;-1.224;2022-09-09T06:51:37;99207.31;;;15.73;81.26
70544;BME280;58097;48.364;-1.224;2022-09-09T06:54:07;99210.31;;;15.85;80.89
70544;BME280;58097;48.364;-1.224;2022-09-09T06:56:36;99214.84;;;15.99;80.60
70544;BME280;58097;48.364;-1.224;2022-09-09T06:59:03;99220.84;;;16.09;80.01
70544;BME280;58097;48.364;-1.224;2022-09-09T07:01:32;99221.50;;;16.25;79.76
70544;BME280;58097;48.364;-1.224;2022-09-09T07:03:58;99211.22;;;16.25;79.62
70544;BME280;58097;48.364;-1.224;2022-09-09T07:06:25;99218.47;;;16.39;79.53
70544;BME280;58097;48.364;-1.224;2022-09-09T07:08:55;99224.72;;;16.55;79.36
70544;BME280;58097;48.364;-1.224;2022-09-09T07:11:23;99223.63;;;16.56;78.71
70544;BME280;58097;48.364;-1.224;2022-09-09T07:13:48;99228.78;;;16.52;78.63
70544;BME280;58097;48.364;-1.224;2022-09-09T07:16:16;99230.50;;;16.60;78.83
70544;BME280;58097;48.364;-1.224;2022-09-09T07:18:43;99230.50;;;16.60;78.31
70544;BME280;58097;48.364;-1.224;2022-09-09T07:21:10;99233.50;;;16.58;78.21
70544;BME280;58097;48.364;-1.224;2022-09-09T07:23:37;99229.63;;;16.59;78.29
70544;BME280;58097;48.364;-1.224;2022-09-09T07:26:07;99241.44;;;16.61;78.53
70544;BME280;58097;48.364;-1.224;2022-09-09T07:28:33;99244.00;;;16.69;78.52
70544;BME280;58097;48.364;-1.224;2022-09-09T07:31:00;99236.91;;;16.73;78.15
70544;BME280;58097;48.364;-1.224;2022-09-09T07:33:28;99242.09;;;16.70;78.15
70544;BME280;58097;48.364;-1.224;2022-09-09T07:36:03;99241.22;;;16.76;78.14
70544;BME280;58097;48.364;-1.224;2022-09-09T07:38:29;99235.88;;;16.81;77.58
70544;BME280;58097;48.364;-1.224;2022-09-09T07:41:03;99246.81;;;16.83;77.38
70544;BME280;58097;48.364;-1.224;2022-09-09T07:43:29;99239.94;;;16.85;77.37
70544;BME280;58097;48.364;-1.224;2022-09-09T07:45:58;99238.63;;;16.88;77.51
70544;BME280;58097;48.364;-1.224;2022-09-09T07:48:23;99249.56;;;16.89;77.55
70544;BME280;58097;48.364;-1.224;2022-09-09T07:50:48;99254.94;;;16.84;77.23
70544;BME280;58097;48.364;-1.224;2022-09-09T07:53:14;99258.41;;;16.80;76.91
70544;BME280;58097;48.364;-1.224;2022-09-09T07:55:39;99250.88;;;16.67;77.33
70544;BME280;58097;48.364;-1.224;2022-09-09T07:58:05;99258.59;;;16.65;77.61
70544;BME280;58097;48.364;-1.224;2022-09-09T08:00:30;99262.69;;;16.69;77.88
70544;BME280;58097;48.364;-1.224;2022-09-09T08:02:58;99266.78;;;16.80;77.80
70544;BME280;58097;48.364;-1.224;2022-09-09T08:05:24;99261.16;;;16.86;77.47
70544;BME280;58097;48.364;-1.224;2022-09-09T08:07:50;99269.53;;;16.86;76.98
70544;BME280;58097;48.364;-1.224;2022-09-09T08:10:15;99262.44;;;16.97;77.41
70544;BME280;58097;48.364;-1.224;2022-09-09T08:12:41;99267.97;;;17.03;77.15
70544;BME280;58097;48.364;-1.224;2022-09-09T08:15:06;99266.44;;;17.21;76.99
70544;BME280;58097;48.364;-1.224;2022-09-09T08:17:32;99278.00;;;17.31;76.77
70544;BME280;58097;48.364;-1.224;2022-09-09T08:19:58;99281.00;;;17.36;76.07
70544;BME280;58097;48.364;-1.224;2022-09-09T08:22:30;99276.06;;;17.31;75.70
70544;BME280;58097;48.364;-1.224;2022-09-09T08:24:55;99288.94;;;17.32;75.81
70544;BME280;58097;48.364;-1.224;2022-09-09T08:27:21;99290.88;;;17.32;75.82
70544;BME280;58097;48.364;-1.224;2022-09-09T08:29:47;99289.81;;;17.33;76.15
70544;BME280;58097;48.364;-1.224;2022-09-09T08:32:13;99291.31;;;17.29;75.80
70544;BME280;58097;48.364;-1.224;2022-09-09T08:34:38;99291.31;;;17.29;76.04
70544;BME280;58097;48.364;-1.224;2022-09-09T08:37:03;99296.44;;;17.45;76.61
70544;BME280;58097;48.364;-1.224;2022-09-09T08:39:29;99295.56;;;17.51;76.16
70544;BME280;58097;48.364;-1.224;2022-09-09T08:55:34;99308.00;;;17.69;75.33
70544;BME280;58097;48.364;-1.224;2022-09-09T08:58:09;99304.22;;;17.88;74.90
70544;BME280;58097;48.364;-1.224;2022-09-09T09:03:24;99306.34;;;18.31;74.39
70544;BME280;58097;48.364;-1.224;2022-09-09T09:06:09;99311.00;;;18.68;74.36
70544;BME280;58097;48.364;-1.224;2022-09-09T09:08:44;99308.91;;;18.88;71.26
70544;BME280;58097;48.364;-1.224;2022-09-09T09:11:14;99311.34;;;19.03;72.74
70544;BME280;58097;48.364;-1.224;2022-09-09T09:13:47;99313.13;;;18.98;71.38
70544;BME280;58097;48.364;-1.224;2022-09-09T09:16:28;99309.06;;;18.94;71.55
70544;BME280;58097;48.364;-1.224;2022-09-09T09:18:58;99308.28;;;18.86;71.20
70544;BME280;58097;48.364;-1.224;2022-09-09T09:24:09;99313.03;;;19.04;71.79
70544;BME280;58097;48.364;-1.224;2022-09-09T09:26:42;99313.44;;;19.08;70.77
70544;BME280;58097;48.364;-1.224;2022-09-09T09:29:17;99318.25;;;19.01;70.26
70544;BME280;58097;48.364;-1.224;2022-09-09T09:31:50;99332.72;;;18.98;70.91
70544;BME280;58097;48.364;-1.224;2022-09-09T09:34:16;99335.41;;;19.11;70.96
70544;BME280;58097;48.364;-1.224;2022-09-09T09:36:46;99336.34;;;19.23;69.98
70544;BME280;58097;48.364;-1.224;2022-09-09T09:39:29;99339.69;;;19.13;69.11
70544;BME280;58097;48.364;-1.224;2022-09-09T09:41:54;99338.38;;;19.16;69.13
70544;BME280;58097;48.364;-1.224;2022-09-09T09:44:28;99344.75;;;19.23;69.55
70544;BME280;58097;48.364;-1.224;2022-09-09T09:47:06;99348.47;;;19.17;69.33
70544;BME280;58097;48.364;-1.224;2022-09-09T09:49:33;99346.88;;;19.03;68.57
70544;BME280;58097;48.364;-1.224;2022-09-09T09:52:02;99349.75;;;18.96;69.21
70544;BME280;58097;48.364;-1.224;2022-09-09T09:54:31;99355.34;;;18.96;69.24
70544;BME280;58097;48.364;-1.224;2022-09-09T09:57:08;99355.75;;;19.00;70.22
70544;BME280;58097;48.364;-1.224;2022-09-09T09:59:35;99351.69;;;18.96;69.51
70544;BME280;58097;48.364;-1.224;2022-09-09T10:04:45;99357.97;;;18.91;69.23
70544;BME280;58097;48.364;-1.224;2022-09-09T10:07:13;99368.16;;;19.10;70.05
70544;BME280;58097;48.364;-1.224;2022-09-09T10:09:42;99357.66;;;19.24;69.38
70544;BME280;58097;48.364;-1.224;2022-09-09T10:17:43;99372.25;;;19.08;68.18
70544;BME280;58097;48.364;-1.224;2022-09-09T10:20:20;99367.94;;;19.12;69.29
70544;BME280;58097;48.364;-1.224;2022-09-09T10:23:42;99374.16;;;19.14;69.26
70544;BME280;58097;48.364;-1.224;2022-09-09T10:28:37;99370.25;;;19.15;69.29
70544;BME280;58097;48.364;-1.224;2022-09-09T10:36:24;99373.53;;;19.30;68.46
70544;BME280;58097;48.364;-1.224;2022-09-09T10:38:59;99376.59;;;19.29;67.06
70544;BME280;58097;48.364;-1.224;2022-09-09T10:42:06;99388.09;;;19.21;67.77
70544;BME280;58097;48.364;-1.224;2022-09-09T10:44:39;99379.13;;;19.12;67.49
70544;BME280;58097;48.364;-1.224;2022-09-09T10:55:39;99384.84;;;20.03;66.37
70544;BME280;58097;48.364;-1.224;2022-09-09T10:58:12;99386.81;;;20.15;65.22
70544;BME280;58097;48.364;-1.224;2022-09-09T11:00:44;99393.63;;;20.25;65.09
70544;BME280;58097;48.364;-1.224;2022-09-09T11:03:23;99399.69;;;20.40;65.28
70544;BME280;58097;48.364;-1.224;2022-09-09T11:05:53;99392.38;;;20.51;64.48
70544;BME280;58097;48.364;-1.224;2022-09-09T11:08:24;99385.47;;;20.54;64.51
70544;BME280;58097;48.364;-1.224;2022-09-09T11:10:56;99393.44;;;20.68;65.60
70544;BME280;58097;48.364;-1.224;2022-09-09T11:13:33;99383.72;;;20.83;64.00
70544;BME280;58097;48.364;-1.224;2022-09-09T11:16:19;99376.03;;;20.90;63.90
70544;BME280;58097;48.364;-1.224;2022-09-09T11:18:46;99376.78;;;21.09;64.53
70544;BME280;58097;48.364;-1.224;2022-09-09T11:21:24;99381.91;;;21.00;63.75
70544;BME280;58097;48.364;-1.224;2022-09-09T11:23:59;99380.66;;;20.84;63.65
70544;BME280;58097;48.364;-1.224;2022-09-09T11:26:33;99390.38;;;20.58;64.05
70544;BME280;58097;48.364;-1.224;2022-09-09T11:29:27;99385.53;;;20.47;65.49
70544;BME280;58097;48.364;-1.224;2022-09-09T11:40:37;99401.19;;;19.88;66.77
70544;BME280;58097;48.364;-1.224;2022-09-09T11:43:05;99394.66;;;19.76;67.69
70544;BME280;58097;48.364;-1.224;2022-09-09T11:45:34;99396.69;;;19.69;67.76
70544;BME280;58097;48.364;-1.224;2022-09-09T11:48:02;99392.84;;;19.63;68.20
70544;BME280;58097;48.364;-1.224;2022-09-09T11:50:31;99393.78;;;19.57;68.56
70544;BME280;58097;48.364;-1.224;2022-09-09T11:53:17;99401.50;;;19.80;69.95
70544;BME280;58097;48.364;-1.224;2022-09-09T11:55:46;99391.50;;;20.21;70.05
70544;BME280;58097;48.364;-1.224;2022-09-09T12:00:39;99390.09;;;20.90;68.13
70544;BME280;58097;48.364;-1.224;2022-09-09T12:03:35;99385.16;;;21.27;67.71
70544;BME280;58097;48.364;-1.224;2022-09-09T12:08:56;99380.38;;;21.51;65.32
70544;BME280;58097;48.364;-1.224;2022-09-09T12:11:29;99378.91;;;21.72;65.85
70544;BME280;58097;48.364;-1.224;2022-09-09T12:13:57;99375.97;;;21.78;63.49
70544;BME280;58097;48.364;-1.224;2022-09-09T12:19:12;99379.06;;;21.42;62.14
70544;BME280;58097;48.364;-1.224;2022-09-09T12:22:04;99366.16;;;20.99;61.70
70544;BME280;58097;48.364;-1.224;2022-09-09T12:27:26;99392.06;;;20.59;64.20
70544;BME280;58097;48.364;-1.224;2022-09-09T12:30:04;99391.31;;;20.34;64.54
70544;BME280;58097;48.364;-1.224;2022-09-09T12:32:33;99396.31;;;20.32;66.13
70544;BME280;58097;48.364;-1.224;2022-09-09T12:35:11;99386.56;;;20.34;66.82
70544;BME280;58097;48.364;-1.224;2022-09-09T12:37:50;99387.81;;;20.38;66.91
70544;BME280;58097;48.364;-1.224;2022-09-09T12:40:22;99395.13;;;20.39;67.02
70544;BME280;58097;48.364;-1.224;2022-09-09T12:42:48;99397.31;;;20.37;67.17
70544;BME280;58097;48.364;-1.224;2022-09-09T12:45:21;99400.53;;;20.23;67.05
70544;BME280;58097;48.364;-1.224;2022-09-09T12:50:23;99412.09;;;19.78;67.10
70544;BME280;58097;48.364;-1.224;2022-09-09T12:52:52;99404.97;;;19.57;66.91
70544;BME280;58097;48.364;-1.224;2022-09-09T12:55:30;99410.31;;;19.40;67.36
70544;BME280;58097;48.364;-1.224;2022-09-09T12:57:57;99417.13;;;19.26;67.48
70544;BME280;58097;48.364;-1.224;2022-09-09T13:00:24;99410.34;;;19.15;68.07
70544;BME280;58097;48.364;-1.224;2022-09-09T13:02:55;99420.28;;;19.11;68.78
70544;BME280;58097;48.364;-1.224;2022-09-09T13:05:27;99419.69;;;19.03;68.89
70544;BME280;58097;48.364;-1.224;2022-09-09T13:08:00;99423.41;;;18.97;69.23
70544;BME280;58097;48.364;-1.224;2022-09-09T13:10:29;99427.97;;;18.91;69.82
70544;BME280;58097;48.364;-1.224;2022-09-09T13:12:56;99425.41;;;18.90;70.49
70544;BME280;58097;48.364;-1.224;2022-09-09T13:15:24;99431.91;;;18.83;71.56
70544;BME280;58097;48.364;-1.224;2022-09-09T13:18:01;99426.53;;;18.82;72.19
70544;BME280;58097;48.364;-1.224;2022-09-09T13:20:28;99428.06;;;18.78;73.03
70544;BME280;58097;48.364;-1.224;2022-09-09T13:22:55;99418.53;;;18.85;73.48
70544;BME280;58097;48.364;-1.224;2022-09-09T13:28:01;99419.75;;;18.96;73.39
70544;BME280;58097;48.364;-1.224;2022-09-09T13:30:32;99425.91;;;19.05;72.88
70544;BME280;58097;48.364;-1.224;2022-09-09T13:36:09;99419.22;;;19.31;73.67
70544;BME280;58097;48.364;-1.224;2022-09-09T13:41:25;99426.41;;;19.88;73.68
70544;BME280;58097;48.364;-1.224;2022-09-09T13:43:54;99426.44;;;20.06;72.96
70544;BME280;58097;48.364;-1.224;2022-09-09T13:49:23;99415.56;;;20.47;71.09
70544;BME280;58097;48.364;-1.224;2022-09-09T13:51:49;99425.28;;;20.62;69.85
70544;BME280;58097;48.364;-1.224;2022-09-09T13:54:18;99427.25;;;20.73;70.13
70544;BME280;58097;48.364;-1.224;2022-09-09T13:56:44;99433.69;;;20.92;70.50
70544;BME280;58097;48.364;-1.224;2022-09-09T13:59:12;99422.09;;;21.00;70.21
70544;BME280;58097;48.364;-1.224;2022-09-09T14:01:38;99416.09;;;20.85;68.32
70544;BME280;58097;48.364;-1.224;2022-09-09T14:04:03;99421.41;;;20.75;68.53
70544;BME280;58097;48.364;-1.224;2022-09-09T14:06:31;99419.03;;;20.60;68.74
70544;BME280;58097;48.364;-1.224;2022-09-09T14:08:57;99422.50;;;20.44;68.31
70544;BME280;58097;48.364;-1.224;2022-09-09T14:11:23;99425.94;;;20.28;68.69
70544;BME280;58097;48.364;-1.224;2022-09-09T14:13:48;99434.53;;;20.15;69.07
70544;BME280;58097;48.364;-1.224;2022-09-09T14:16:17;99432.50;;;20.03;69.35
70544;BME280;58097;48.364;-1.224;2022-09-09T14:18:43;99434.69;;;19.83;69.47
70544;BME280;58097;48.364;-1.224;2022-09-09T14:21:09;99440.44;;;19.70;69.05
70544;BME280;58097;48.364;-1.224;2022-09-09T14:23:35;99434.97;;;19.57;69.79
70544;BME280;58097;48.364;-1.224;2022-09-09T14:26:01;99440.38;;;19.52;69.86
70544;BME280;58097;48.364;-1.224;2022-09-09T14:28:26;99444.72;;;19.47;70.26
70544;BME280;58097;48.364;-1.224;2022-09-09T14:30:53;99454.91;;;19.42;71.01
70544;BME280;58097;48.364;-1.224;2022-09-09T14:33:19;99440.16;;;19.28;71.42
70544;BME280;58097;48.364;-1.224;2022-09-09T14:35:44;99448.22;;;19.18;71.29
70544;BME280;58097;48.364;-1.224;2022-09-09T14:38:09;99451.31;;;19.10;72.30
70544;BME280;58097;48.364;-1.224;2022-09-09T14:40:36;99452.66;;;19.01;73.09
70544;BME280;58097;48.364;-1.224;2022-09-09T14:43:02;99455.06;;;18.97;72.91
70544;BME280;58097;48.364;-1.224;2022-09-09T14:45:28;99453.56;;;18.95;73.30
70544;BME280;58097;48.364;-1.224;2022-09-09T14:47:54;99449.50;;;18.91;74.17
70544;BME280;58097;48.364;-1.224;2022-09-09T14:50:20;99443.63;;;18.99;73.88
70544;BME280;58097;48.364;-1.224;2022-09-09T14:52:45;99447.84;;;19.08;74.23
70544;BME280;58097;48.364;-1.224;2022-09-09T14:55:10;99448.69;;;19.15;73.52